Amazonia, Missouri
Current Conditions -  °F | °C
As of 2:32 AM on Friday 24 Oct 2014 (Local Time) from KSTJ Reporting Station
Haze Haze  
Wind Chill: 54°   Ceiling: Unl
Heat Index: 54°   Visibility: 1.5mi
Dew Point: 54°   Wind: 5mph
Humidity: 100%   Direction: 150°SSE
Pressure: 30.06"   Gusts: NA
Location:  39.89°N, 94.89°W
Report Text: KSTJ 240732Z AUTO 15004KT 1 1/2SM BR FEW009 12/12 A3006 RMK AO2 T01220122
Loading
Personal Weather Stations






























Interactive Weather Map New forecast layout! Learn more

10-Day Weather Forecast

Advertisements
Track Severe Weather on mobile